Time;durP1;ratioP1;P1;durP2;ratioP2;P2;SDS_P1;SDS_P2;PMS_P1;PMS_P2;Temp;Humidity;BMP_temperature;BMP_pressure;BME280_temperature;BME280_humidity;BME280_pressure;Samples;Min_cycle;Max_cycle;Signal;HPM_P1;HPM_P2
2023/01/23 05:15:00;;;;;;;14.32;8.73;;;;;;;2.29;100.00;101189.19;5613484;31;171866;-86
2023/01/23 05:18:04;;;;;;;15.90;8.45;;;;;;;2.29;100.00;101189.19;5587895;31;34590;-86
2023/01/23 05:21:09;;;;;;;12.95;7.97;;;;;;;1.84;100.00;101199.72;5585780;31;34488;-87
2023/01/23 05:24:12;;;;;;;12.13;7.87;;;;;;;1.80;100.00;101195.38;5583766;31;33772;-87
2023/01/23 05:27:16;;;;;;;12.35;7.28;;;;;;;1.80;100.00;101196.22;5583483;32;34655;-86
2023/01/23 05:30:21;;;;;;;14.90;7.85;;;;;;;1.88;100.00;101198.84;5583969;31;35040;-86
2023/01/23 05:33:25;;;;;;;10.18;6.60;;;;;;;1.94;100.00;101200.56;5589053;31;33548;-87
2023/01/23 05:36:28;;;;;;;13.00;7.35;;;;;;;2.07;100.00;101212.81;5587264;32;34319;-87
2023/01/23 05:39:31;;;;;;;10.82;6.85;;;;;;;2.11;100.00;101211.91;5591534;32;33859;-86
2023/01/23 05:42:35;;;;;;;12.70;6.90;;;;;;;2.10;100.00;101206.66;5590053;32;34546;-87
2023/01/23 05:45:38;;;;;;;10.35;6.95;;;;;;;2.12;100.00;101208.41;5589161;32;34714;-87
2023/01/23 05:48:43;;;;;;;9.50;6.18;;;;;;;2.13;100.00;101211.91;5593533;32;33848;-86
2023/01/23 05:51:46;;;;;;;9.50;6.78;;;;;;;2.13;100.00;101207.56;5588739;32;33526;-87
2023/01/23 05:54:50;;;;;;;8.73;6.53;;;;;;;2.15;100.00;101207.53;5588485;32;34024;-86
2023/01/23 05:57:53;;;;;;;9.05;6.43;;;;;;;2.16;100.00;101209.28;5589143;32;35886;-85
2023/01/23 06:01:02;;;;;;;9.32;6.30;;;;;;;2.23;100.00;101218.91;5588145;31;33840;-85
2023/01/23 06:04:06;;;;;;;10.27;6.97;;;;;;;2.28;100.00;101217.13;5591739;31;34503;-86
2023/01/23 06:07:13;;;;;;;9.65;6.30;;;;;;;2.29;100.00;101223.22;5587888;31;34257;-86
2023/01/23 06:10:17;;;;;;;12.40;6.22;;;;;;;2.34;100.00;101225.84;5588146;31;33811;-86
2023/01/23 06:13:20;;;;;;;9.43;6.40;;;;;;;2.37;100.00;101226.69;5587228;32;33796;-86
2023/01/23 06:16:23;;;;;;;13.07;7.20;;;;;;;2.54;100.00;101233.66;5588960;32;34352;-86
2023/01/23 06:19:26;;;;;;;9.20;6.30;;;;;;;2.61;100.00;101240.63;5590885;32;33724;-84
2023/01/23 06:22:29;;;;;;;10.95;6.82;;;;;;;2.67;100.00;101243.22;5585082;31;33821;-86
2023/01/23 06:25:33;;;;;;;10.30;6.55;;;;;;;2.63;100.00;101248.47;5573095;32;34402;-85
2023/01/23 06:28:38;;;;;;;10.90;6.65;;;;;;;2.62;100.00;101260.69;5565529;32;34785;-85
2023/01/23 06:31:41;;;;;;;9.73;6.47;;;;;;;2.77;100.00;101259.78;5557218;32;35203;-85
2023/01/23 06:34:44;;;;;;;10.65;6.82;;;;;;;2.94;100.00;101270.22;5564845;31;33793;-86
2023/01/23 06:37:47;;;;;;;10.45;6.65;;;;;;;2.97;100.00;101272.81;5563675;32;35520;-86
2023/01/23 06:40:50;;;;;;;9.48;6.53;;;;;;;3.03;100.00;101278.94;5567579;32;33902;-87
2023/01/23 06:43:55;;;;;;;9.50;6.90;;;;;;;3.05;100.00;101279.78;5559226;32;33972;-86
2023/01/23 06:46:58;;;;;;;9.25;6.47;;;;;;;3.08;100.00;101285.88;5561936;32;34662;-87
2023/01/23 06:50:01;;;;;;;8.38;6.62;;;;;;;3.12;100.00;101288.50;5557843;32;33974;-90
2023/01/23 06:53:04;;;;;;;10.60;6.82;;;;;;;3.16;100.00;101295.50;5556440;32;34275;-90
2023/01/23 06:56:07;;;;;;;11.27;7.00;;;;;;;3.26;100.00;101286.69;5556232;32;33978;-90
2023/01/23 06:59:11;;;;;;;10.48;7.05;;;;;;;3.36;100.00;101285.78;5558531;32;34926;-86
2023/01/23 07:02:14;;;;;;;10.73;6.62;;;;;;;3.41;100.00;101285.75;5569645;32;32966;-86
2023/01/23 07:05:18;;;;;;;11.35;7.45;;;;;;;3.50;100.00;101283.09;5571650;32;33956;-88
2023/01/23 07:08:21;;;;;;;12.32;7.22;;;;;;;3.59;100.00;101279.53;5562167;32;33878;-88
2023/01/23 07:11:24;;;;;;;14.18;7.43;;;;;;;3.70;100.00;101286.44;5567182;32;33632;-88
2023/01/23 07:14:30;;;;;;;16.98;8.02;;;;;;;3.80;100.00;101287.25;5553367;32;33823;-87
2023/01/23 07:17:34;;;;;;;15.93;8.77;;;;;;;3.88;100.00;101294.19;5552942;32;34501;-88
2023/01/23 07:20:38;;;;;;;13.77;8.27;;;;;;;3.97;100.00;101305.53;5557664;32;33906;-87
2023/01/23 07:23:42;;;;;;;12.70;8.63;;;;;;;4.07;100.00;101303.72;5551791;32;34593;-87
2023/01/23 07:26:44;;;;;;;15.30;8.82;;;;;;;4.19;100.00;101306.25;5551481;32;34413;-85
2023/01/23 07:29:47;;;;;;;15.35;9.30;;;;;;;4.32;100.00;101325.37;5565540;32;34332;-86
2023/01/23 07:32:50;;;;;;;18.17;9.02;;;;;;;4.45;100.00;101313.91;5557807;32;34132;-86
2023/01/23 07:35:54;;;;;;;15.88;8.65;;;;;;;4.57;100.00;101312.03;5561803;32;34010;-87
2023/01/23 07:38:57;;;;;;;14.75;7.95;;;;;;;4.74;100.00;101321.50;5569585;32;34591;-88
2023/01/23 07:42:00;;;;;;;12.98;8.00;;;;;;;4.79;100.00;101325.84;5564113;32;33801;-87
2023/01/23 07:45:03;;;;;;;12.27;7.28;;;;;;;4.92;100.00;101325.72;5555416;32;33855;-87
2023/01/23 07:48:06;;;;;;;13.85;8.15;;;;;;;5.08;100.00;101326.41;5561456;32;34115;-88
2023/01/23 07:51:10;;;;;;;12.88;7.68;;;;;;;5.12;100.00;101318.47;5570496;32;33850;-89
2023/01/23 07:54:13;;;;;;;12.45;7.95;;;;;;;5.10;100.00;101325.50;5569990;32;34027;-87
2023/01/23 07:57:16;;;;;;;10.43;7.05;;;;;;;5.25;100.00;101321.78;5567997;32;33985;-88
2023/01/23 08:00:19;;;;;;;10.35;7.25;;;;;;;5.36;100.00;101318.16;5616753;26;34704;-88
2023/01/23 08:03:28;;;;;;;10.65;7.95;;;;;;;5.54;100.00;101327.59;5583885;26;33949;-88
2023/01/23 08:06:32;;;;;;;13.62;7.35;;;;;;;5.30;100.00;101329.66;5571575;32;33438;-88
2023/01/23 08:09:35;;;;;;;11.10;7.78;;;;;;;5.34;100.00;101335.75;5565422;32;34526;-87
2023/01/23 08:12:38;;;;;;;11.77;7.50;;;;;;;5.31;100.00;101334.03;5568326;32;34306;-87
2023/01/23 08:15:41;;;;;;;12.13;7.85;;;;;;;5.27;100.00;101329.69;5568957;32;34177;-87
2023/01/23 08:18:44;;;;;;;11.68;8.13;;;;;;;5.31;100.00;101322.63;5580003;32;34456;-88
2023/01/23 08:21:46;;;;;;;14.25;9.50;;;;;;;5.46;100.00;101327.69;5565285;32;33345;-89
2023/01/23 08:24:49;;;;;;;18.73;10.43;;;;;;;5.49;100.00;101324.16;5562580;32;34537;-88
2023/01/23 08:27:52;;;;;;;16.98;10.48;;;;;;;5.62;100.00;101319.56;5561225;32;35203;-89
2023/01/23 08:30:58;;;;;;;15.02;10.00;;;;;;;5.54;100.00;101324.97;5561238;32;34219;-89
2023/01/23 08:34:02;;;;;;;15.68;9.25;;;;;;;5.79;100.00;101333.38;5558889;32;35150;-89
2023/01/23 08:37:04;;;;;;;15.43;8.98;;;;;;;6.10;100.00;101332.09;5549379;32;34995;-89
2023/01/23 08:40:12;;;;;;;13.27;8.40;;;;;;;6.03;100.00;101330.47;5610306;26;33948;-89
2023/01/23 08:43:16;;;;;;;12.10;7.40;;;;;;;6.16;100.00;101334.63;5596208;26;33831;-89
2023/01/23 08:46:19;;;;;;;11.38;7.43;;;;;;;5.92;100.00;101336.72;5593792;26;34157;-89
2023/01/23 08:49:22;;;;;;;11.12;7.22;;;;;;;5.87;100.00;101340.28;5545096;32;33924;-89
2023/01/23 08:52:25;;;;;;;15.57;8.00;;;;;;;5.99;100.00;101332.22;5547982;32;34901;-88
2023/01/23 08:55:28;;;;;;;14.02;8.45;;;;;;;6.04;100.00;101342.72;5548218;32;34367;-88
2023/01/23 08:58:31;;;;;;;16.00;8.90;;;;;;;6.04;100.00;101335.69;5540322;32;35183;-89
2023/01/23 09:01:34;;;;;;;12.63;8.73;;;;;;;6.34;100.00;101335.22;5552701;32;35179;-91
2023/01/23 09:04:37;;;;;;;12.32;8.30;;;;;;;6.28;100.00;101335.34;5557826;32;35223;-91
2023/01/23 09:07:39;;;;;;;12.27;8.10;;;;;;;6.25;100.00;101343.28;5530598;32;34059;-91
2023/01/23 09:10:43;;;;;;;13.05;8.57;;;;;;;6.30;100.00;101337.03;5531094;32;35173;-89
2023/01/23 09:13:46;;;;;;;14.35;8.38;;;;;;;6.61;100.00;101340.91;5536925;32;34934;-88
2023/01/23 09:16:51;;;;;;;12.63;7.75;;;;;;;6.91;100.00;101341.25;5547959;32;33818;-89
2023/01/23 09:19:55;;;;;;;12.90;7.93;;;;;;;7.21;100.00;101341.56;5550968;32;34101;-89
2023/01/23 09:22:58;;;;;;;11.25;7.12;;;;;;;7.30;100.00;101340.50;5599371;26;33823;-89
2023/01/23 09:26:12;;;;;;;11.23;7.30;;;;;;;7.57;100.00;101347.84;5585539;26;32933;-89
2023/01/23 09:29:15;;;;;;;12.00;7.07;;;;;;;7.43;100.00;101340.25;5557058;32;33510;-88
2023/01/23 09:32:18;;;;;;;10.38;6.72;;;;;;;7.50;100.00;101339.22;5562984;32;34164;-89
2023/01/23 09:35:22;;;;;;;9.55;6.95;;;;;;;7.76;100.00;101333.38;5551597;32;34447;-88
2023/01/23 09:38:25;;;;;;;9.10;6.68;;;;;;;8.31;100.00;101332.09;5547865;32;33692;-88
2023/01/23 09:41:30;;;;;;;9.10;6.62;;;;;;;8.63;100.00;101328.66;5559007;32;34516;-88
2023/01/23 09:44:40;;;;;;;9.23;7.12;;;;;;;9.11;100.00;101330.91;5556833;32;33679;-88
2023/01/23 09:48:04;;;;;;;13.45;7.85;;;;;;;8.83;100.00;101327.25;5561709;32;34011;-88
2023/01/23 09:51:17;;;;;;;16.67;8.32;;;;;;;8.47;100.00;101328.16;5555353;32;34494;-88
2023/01/23 09:54:39;;;;;;;13.13;8.05;;;;;;;8.77;100.00;101324.78;5557554;32;33986;-89
2023/01/23 09:57:48;;;;;;;10.55;7.62;;;;;;;8.66;100.00;101327.72;5550821;32;33745;-89
2023/01/23 10:00:52;;;;;;;13.02;7.30;;;;;;;9.14;100.00;101325.50;5564729;32;33156;-89
2023/01/23 10:04:00;;;;;;;10.70;7.12;;;;;;;9.53;100.00;101322.63;5593798;26;33773;-88
2023/01/23 10:07:32;;;;;;;12.50;7.50;;;;;;;9.91;100.00;101326.78;5537346;32;33763;-88
2023/01/23 10:10:49;;;;;;;9.10;6.32;;;;;;;10.86;100.00;101324.53;5552852;32;34205;-88
2023/01/23 10:14:14;;;;;;;9.07;6.32;;;;;;;11.39;100.00;101330.56;5539932;32;34847;-88
2023/01/23 10:17:27;;;;;;;8.95;6.45;;;;;;;11.83;94.46;101326.25;5536421;32;33951;-87
2023/01/23 10:21:21;;;;;;;9.13;6.47;;;;;;;12.65;94.70;101324.69;5533695;32;34487;-87
2023/01/23 10:24:47;;;;;;;9.70;6.82;;;;;;;12.92;90.05;101330.59;5472128;32;33976;-87
2023/01/23 10:27:51;;;;;;;9.45;6.70;;;;;;;12.62;89.53;101327.50;5489063;32;34228;-88
2023/01/23 10:30:59;;;;;;;11.25;7.00;;;;;;;12.30;91.17;101329.72;5489887;32;33724;-87
2023/01/23 10:34:02;;;;;;;12.02;7.72;;;;;;;12.04;93.09;101323.66;5488225;32;34362;-88
2023/01/23 10:37:26;;;;;;;11.00;7.32;;;;;;;11.35;97.33;101326.28;5488091;32;33889;-89
2023/01/23 10:41:18;;;;;;;14.13;7.62;;;;;;;11.76;99.14;101327.44;5486721;32;33930;-88
2023/01/23 10:43:53;;;;;;;12.63;7.40;;;;;;;11.57;95.91;101325.50;5482291;32;34495;-88
2023/01/23 10:47:00;;;;;;;11.00;7.40;;;;;;;12.30;93.43;101317.28;5489681;32;33478;-89
2023/01/23 10:50:04;;;;;;;12.93;7.57;;;;;;;11.66;95.98;101303.84;5481429;32;33606;-89
2023/01/23 10:53:17;;;;;;;11.30;7.50;;;;;;;12.53;92.20;101310.12;5493744;32;34532;-89
2023/01/23 10:56:20;;;;;;;13.35;7.85;;;;;;;12.22;92.91;101311.44;5489581;32;34454;-88
2023/01/23 10:59:31;;;;;;;12.68;8.38;;;;;;;12.56;97.07;101296.66;5540156;32;33501;-88
2023/01/23 11:02:37;;;;;;;11.00;7.37;;;;;;;13.13;96.65;101303.06;5534898;32;33830;-88
2023/01/23 11:05:44;;;;;;;10.00;6.78;;;;;;;12.75;91.70;101294.09;5541508;32;33583;-88
2023/01/23 11:08:59;;;;;;;12.82;6.97;;;;;;;12.19;94.00;101295.59;5547667;32;34054;-88
2023/01/23 11:12:04;;;;;;;14.23;6.30;;;;;;;12.38;92.90;101293.03;5546254;32;34066;-88
2023/01/23 11:15:27;;;;;;;7.68;5.97;;;;;;;11.94;94.38;101286.81;5543985;32;34005;-87
2023/01/23 11:18:33;;;;;;;8.55;5.95;;;;;;;11.68;95.74;101291.34;5552090;32;34643;-87
2023/01/23 11:21:55;;;;;;;15.65;5.25;;;;;;;11.70;93.81;101293.97;5544881;32;34279;-87
2023/01/23 11:24:58;;;;;;;8.95;5.62;;;;;;;12.04;93.32;101292.62;5549229;32;33691;-87
2023/01/23 11:28:25;;;;;;;7.12;5.10;;;;;;;13.37;82.50;101281.56;5539530;32;35050;-89
2023/01/23 11:31:30;;;;;;;6.80;5.12;;;;;;;12.97;83.67;101278.94;5536123;32;33659;-87
2023/01/23 11:34:40;;;;;;;9.57;5.00;;;;;;;12.22;87.44;101280.34;5538382;32;34887;-87
2023/01/23 11:37:43;;;;;;;7.03;4.60;;;;;;;11.50;89.35;101276.12;5547643;32;33715;-87
2023/01/23 11:40:47;;;;;;;8.50;4.30;;;;;;;11.36;89.46;101282.88;5549236;32;33886;-89
2023/01/23 11:43:51;;;;;;;7.50;4.22;;;;;;;11.74;89.25;101279.62;5543032;32;33929;-87
2023/01/23 11:47:20;;;;;;;5.12;4.10;;;;;;;13.62;78.48;101275.94;5608396;26;34282;-88
2023/01/23 11:50:36;;;;;;;5.22;4.10;;;;;;;12.69;81.06;101273.06;5567904;32;33851;-88
2023/01/23 11:54:11;;;;;;;7.45;4.85;;;;;;;11.85;85.09;101258.81;5582017;31;35387;-88
2023/01/23 11:57:33;;;;;;;7.55;4.50;;;;;;;11.51;89.70;101261.97;5572835;32;35141;-88
2023/01/23 12:01:07;;;;;;;6.00;4.62;;;;;;;11.32;90.56;101268.84;5609143;26;34422;-88
2023/01/23 12:04:36;;;;;;;7.40;4.32;;;;;;;11.35;91.01;101262.53;5555013;32;34318;-89
2023/01/23 12:07:59;;;;;;;7.20;4.72;;;;;;;11.36;91.40;101264.28;5541889;32;34311;-88
2023/01/23 12:11:11;;;;;;;8.98;5.20;;;;;;;11.09;92.79;101271.50;5541829;32;34451;-89
2023/01/23 12:14:35;;;;;;;8.38;4.93;;;;;;;10.98;94.03;101282.53;5536708;32;34278;-89
2023/01/23 12:25:15;;;;;;;5.45;4.35;;;;;;;10.88;91.29;101263.41;4830413;26;20095;31
2023/01/23 12:28:23;;;;;;;5.25;4.18;;;;;;;10.90;91.86;101269.53;5497479;32;33792;-89
2023/01/23 12:31:39;;;;;;;6.93;4.20;;;;;;;10.89;91.88;101279.28;5488949;32;34768;-88
2023/01/23 12:34:57;;;;;;;7.70;4.43;;;;;;;10.84;92.30;101262.66;5489761;32;35428;-87
2023/01/23 12:38:10;;;;;;;6.90;4.60;;;;;;;10.75;91.84;101261.22;5484407;32;34025;-87
2023/01/23 12:41:29;;;;;;;5.40;4.25;;;;;;;10.77;91.71;101256.69;5490521;32;33931;-87
2023/01/23 12:45:10;;;;;;;6.85;4.37;;;;;;;10.87;92.26;101262.53;5489943;32;34395;-87
2023/01/23 12:48:29;;;;;;;6.35;4.20;;;;;;;10.95;91.58;101264.91;5488433;32;33580;-87
2023/01/23 12:51:44;;;;;;;7.43;4.65;;;;;;;10.90;91.08;101264.22;5485053;32;34608;-87
2023/01/23 12:55:04;;;;;;;10.25;4.55;;;;;;;10.81;92.99;101256.59;5489650;32;35476;-91
2023/01/23 12:58:13;;;;;;;6.35;4.40;;;;;;;10.82;94.42;101255.69;5489993;32;34059;-88
2023/01/23 13:01:29;;;;;;;7.00;4.10;;;;;;;10.80;92.46;101260.19;5494517;32;34373;-88
2023/01/23 13:05:05;;;;;;;7.25;4.57;;;;;;;10.71;93.91;101261.38;5495983;32;34110;-88
2023/01/23 13:08:22;;;;;;;5.50;4.37;;;;;;;10.84;93.77;101273.28;5483072;32;34217;-87
2023/01/23 13:11:50;;;;;;;6.78;4.60;;;;;;;10.80;92.80;101268.16;5492864;32;34168;-89
2023/01/23 13:15:16;;;;;;;7.30;4.40;;;;;;;10.81;93.33;101270.72;5490029;32;33976;-89
2023/01/23 13:18:26;;;;;;;4.97;4.15;;;;;;;10.77;95.28;101267.31;5487850;32;32701;-89
2023/01/23 13:25:11;;;;;;;6.65;4.12;;;;;;;10.87;93.71;101267.00;5486942;32;33682;-88
2023/01/23 13:28:38;;;;;;;4.80;4.07;;;;;;;10.76;92.71;101264.75;5503334;32;34194;-88
2023/01/23 13:31:49;;;;;;;6.25;4.20;;;;;;;10.86;91.90;101275.88;5496753;32;34496;-88
2023/01/23 13:34:52;;;;;;;6.97;4.75;;;;;;;10.86;92.69;101271.44;5491856;32;35026;-88
2023/01/23 13:37:57;;;;;;;8.05;4.55;;;;;;;10.76;94.61;101275.38;5505778;32;34733;-89
2023/01/23 13:41:17;;;;;;;6.97;4.30;;;;;;;10.74;94.27;101283.38;5495766;32;34147;-89
2023/01/23 13:44:36;;;;;;;6.15;4.57;;;;;;;10.67;94.85;101281.88;5503304;32;34592;-88
2023/01/23 13:51:50;;;;;;;7.32;4.80;;;;;;;10.59;95.63;101289.22;5418725;32;34081;-87
2023/01/23 13:59:35;;;;;;;5.15;4.50;;;;;;;10.47;96.34;101280.75;5306377;33;34181;-86
2023/01/23 14:06:44;;;;;;;10.40;4.80;;;;;;;10.38;97.48;101289.84;5192619;34;33784;-87
2023/01/23 14:10:01;;;;;;;7.32;5.35;;;;;;;10.48;96.51;101286.94;5135461;34;34935;-85
2023/01/23 14:13:21;;;;;;;7.22;5.20;;;;;;;10.28;97.52;101290.22;5133465;34;34359;-85
2023/01/23 14:16:43;;;;;;;8.85;5.15;;;;;;;10.20;98.77;101293.12;5201329;34;33681;-86
2023/01/23 14:20:05;;;;;;;7.00;4.87;;;;;;;10.17;99.24;101287.94;5195707;34;34009;-86
2023/01/23 14:23:37;;;;;;;9.48;5.22;;;;;;;10.06;100.00;101298.91;5211317;34;33886;-87
2023/01/23 14:26:48;;;;;;;6.65;4.75;;;;;;;9.98;100.00;101289.44;5225303;34;33684;-86
2023/01/23 14:29:57;;;;;;;8.50;4.72;;;;;;;9.88;100.00;101290.66;5226043;33;33785;-85
2023/01/23 14:33:00;;;;;;;8.10;5.00;;;;;;;9.88;100.00;101287.13;5305265;33;34147;-85
2023/01/23 14:36:03;;;;;;;9.23;5.18;;;;;;;9.83;100.00;101285.50;5368112;33;33943;-85
2023/01/23 14:39:06;;;;;;;7.43;4.95;;;;;;;9.78;100.00;101294.50;5364248;33;33709;-87
2023/01/23 14:42:27;;;;;;;6.82;4.97;;;;;;;9.77;100.00;101295.41;5375046;33;33821;-87
2023/01/23 14:45:31;;;;;;;6.55;5.10;;;;;;;9.59;100.00;101291.56;5417294;32;33996;-87
2023/01/23 14:48:39;;;;;;;7.60;5.18;;;;;;;9.57;100.00;101291.63;5485322;32;34485;-87
2023/01/23 14:51:54;;;;;;;8.30;4.97;;;;;;;9.46;100.00;101291.06;5499887;32;33981;-85
2023/01/23 14:54:58;;;;;;;8.48;5.22;;;;;;;9.57;100.00;101297.75;5500587;32;33969;-85
2023/01/23 14:58:17;;;;;;;7.37;5.55;;;;;;;9.44;100.00;101296.41;5514844;32;34830;-84
2023/01/23 15:01:20;;;;;;;7.30;5.35;;;;;;;9.34;100.00;101309.06;5501458;32;34320;-85
2023/01/23 15:04:26;;;;;;;8.80;5.40;;;;;;;9.31;100.00;101314.47;5510187;32;34190;-85
2023/01/23 15:07:29;;;;;;;7.97;5.20;;;;;;;9.34;100.00;101310.84;5515984;32;34197;-85
2023/01/23 15:10:45;;;;;;;6.85;4.90;;;;;;;9.10;100.00;101316.78;5519792;32;34183;-85
2023/01/23 15:13:53;;;;;;;7.80;5.28;;;;;;;9.06;100.00;101320.47;5514529;32;35329;-85
2023/01/23 15:17:06;;;;;;;8.95;5.10;;;;;;;9.02;100.00;101316.16;5502125;32;34913;-85
2023/01/23 15:20:42;;;;;;;6.55;5.20;;;;;;;8.87;100.00;101314.81;5497877;32;34082;-86
2023/01/23 15:24:03;;;;;;;7.82;5.40;;;;;;;8.73;100.00;101318.69;5511889;32;34270;-84
2023/01/23 15:27:24;;;;;;;8.77;5.45;;;;;;;8.60;100.00;101318.13;5499439;32;33675;-87
2023/01/23 15:30:32;;;;;;;9.27;5.55;;;;;;;8.50;100.00;101311.31;5511470;32;34194;-85
2023/01/23 15:33:39;;;;;;;14.57;6.68;;;;;;;8.41;100.00;101314.22;5501029;32;33845;-84
2023/01/23 15:36:47;;;;;;;8.23;6.03;;;;;;;8.29;100.00;101321.53;5506460;32;34318;-84
2023/01/23 15:40:03;;;;;;;10.80;6.62;;;;;;;8.27;100.00;101326.00;5503626;32;34914;-84
2023/01/23 15:43:18;;;;;;;11.38;7.00;;;;;;;8.27;100.00;101319.84;5508179;32;33652;-83
2023/01/23 15:46:20;;;;;;;14.45;7.10;;;;;;;8.23;100.00;101329.63;5498044;32;34092;-84
2023/01/23 15:49:23;;;;;;;11.55;7.45;;;;;;;8.19;100.00;101335.88;5492091;32;34374;-83
2023/01/23 15:52:30;;;;;;;14.07;8.10;;;;;;;8.12;100.00;101336.94;5497353;32;34074;-84
2023/01/23 15:55:33;;;;;;;13.07;8.02;;;;;;;8.03;100.00;101332.75;5497753;32;33944;-83
2023/01/23 15:58:35;;;;;;;15.52;8.30;;;;;;;7.99;100.00;101328.47;5501305;32;34110;-84
2023/01/23 16:01:38;;;;;;;15.32;8.60;;;;;;;8.00;100.00;101341.59;5510439;32;34159;-84
2023/01/23 16:04:42;;;;;;;14.13;8.80;;;;;;;7.96;100.00;101334.69;5504584;32;34406;-83
2023/01/23 16:07:46;;;;;;;17.62;9.65;;;;;;;7.90;100.00;101340.09;5516327;32;33568;-84
2023/01/23 16:10:49;;;;;;;13.18;8.88;;;;;;;7.87;100.00;101340.16;5515538;32;34079;-83
2023/01/23 16:13:52;;;;;;;16.20;9.80;;;;;;;7.82;100.00;101337.63;5517691;32;34719;-84
2023/01/23 16:16:55;;;;;;;14.98;9.77;;;;;;;7.80;100.00;101336.81;5514758;32;33998;-84
2023/01/23 16:20:25;;;;;;;13.60;9.43;;;;;;;7.79;100.00;101348.25;5515747;32;34048;-83
2023/01/23 16:23:28;;;;;;;14.50;8.90;;;;;;;7.84;100.00;101348.16;5516587;32;34568;-83
2023/01/23 16:26:49;;;;;;;15.02;8.73;;;;;;;7.82;100.00;101358.75;5514764;32;34135;-84
2023/01/23 16:29:53;;;;;;;14.52;8.75;;;;;;;7.87;100.00;101369.22;5514740;32;33759;-87
2023/01/23 16:32:55;;;;;;;13.85;9.10;;;;;;;7.89;100.00;101362.16;5515464;32;34450;-88
2023/01/23 16:36:00;;;;;;;15.77;9.20;;;;;;;7.87;100.00;101358.66;5516136;32;33954;-88
2023/01/23 16:39:02;;;;;;;14.63;9.05;;;;;;;7.89;100.00;101356.88;5515182;32;34158;-89
2023/01/23 16:42:20;;;;;;;17.00;9.50;;;;;;;7.93;100.00;101355.87;5514714;32;34165;-84
2023/01/23 16:45:28;;;;;;;19.25;10.18;;;;;;;8.07;100.00;101372.28;5514618;32;34188;-84
2023/01/23 16:48:33;;;;;;;14.83;9.63;;;;;;;8.05;100.00;101365.31;5514390;32;34418;-84
2023/01/23 16:51:36;;;;;;;20.37;10.70;;;;;;;8.07;100.00;101371.41;5514819;32;34074;-84
2023/01/23 16:54:41;;;;;;;20.35;10.60;;;;;;;8.07;100.00;101372.28;5514291;32;34033;-84
